sensor_id;sensor_type;location;lat;lon;timestamp;P1;durP1;ratioP1;P2;durP2;ratioP2
65206;SDS011;58477;48.072;11.970;2023-05-10T00:00:04;7.88;;;0.90;;
65206;SDS011;58477;48.072;11.970;2023-05-10T00:02:38;0.70;;;0.70;;
65206;SDS011;58477;48.072;11.970;2023-05-10T00:05:04;0.82;;;0.80;;
65206;SDS011;58477;48.072;11.970;2023-05-10T00:07:30;2.05;;;0.90;;
65206;SDS011;58477;48.072;11.970;2023-05-10T00:09:55;3.95;;;0.80;;
65206;SDS011;58477;48.072;11.970;2023-05-10T00:12:20;0.80;;;0.80;;
65206;SDS011;58477;48.072;11.970;2023-05-10T00:14:46;1.20;;;1.00;;
65206;SDS011;58477;48.072;11.970;2023-05-10T00:17:11;4.18;;;2.55;;
65206;SDS011;58477;48.072;11.970;2023-05-10T00:19:37;2.38;;;0.80;;
65206;SDS011;58477;48.072;11.970;2023-05-10T00:22:02;1.73;;;0.90;;
65206;SDS011;58477;48.072;11.970;2023-05-10T00:24:28;2.90;;;0.90;;
65206;SDS011;58477;48.072;11.970;2023-05-10T00:26:53;1.92;;;0.75;;
65206;SDS011;58477;48.072;11.970;2023-05-10T00:29:18;0.98;;;0.85;;
65206;SDS011;58477;48.072;11.970;2023-05-10T00:31:44;1.58;;;1.30;;
65206;SDS011;58477;48.072;11.970;2023-05-10T00:34:10;0.80;;;0.80;;
65206;SDS011;58477;48.072;11.970;2023-05-10T00:36:36;0.90;;;0.90;;
65206;SDS011;58477;48.072;11.970;2023-05-10T00:39:01;0.95;;;0.95;;
65206;SDS011;58477;48.072;11.970;2023-05-10T00:41:28;1.30;;;0.85;;
65206;SDS011;58477;48.072;11.970;2023-05-10T00:43:55;2.13;;;0.90;;
65206;SDS011;58477;48.072;11.970;2023-05-10T00:46:20;0.90;;;0.80;;
65206;SDS011;58477;48.072;11.970;2023-05-10T00:48:46;1.15;;;0.98;;
65206;SDS011;58477;48.072;11.970;2023-05-10T00:51:12;2.58;;;0.80;;
65206;SDS011;58477;48.072;11.970;2023-05-10T00:53:38;1.42;;;0.90;;
65206;SDS011;58477;48.072;11.970;2023-05-10T00:56:04;1.38;;;0.90;;
65206;SDS011;58477;48.072;11.970;2023-05-10T00:58:30;2.05;;;0.90;;
65206;SDS011;58477;48.072;11.970;2023-05-10T01:00:56;0.80;;;0.70;;
65206;SDS011;58477;48.072;11.970;2023-05-10T01:03:22;1.60;;;1.00;;
65206;SDS011;58477;48.072;11.970;2023-05-10T01:05:47;1.00;;;0.70;;
65206;SDS011;58477;48.072;11.970;2023-05-10T01:08:13;1.58;;;0.90;;
65206;SDS011;58477;48.072;11.970;2023-05-10T01:10:38;0.60;;;0.60;;
65206;SDS011;58477;48.072;11.970;2023-05-10T01:13:04;2.05;;;0.65;;
65206;SDS011;58477;48.072;11.970;2023-05-10T01:15:30;5.03;;;0.57;;
65206;SDS011;58477;48.072;11.970;2023-05-10T01:17:56;2.17;;;0.90;;
65206;SDS011;58477;48.072;11.970;2023-05-10T01:20:22;0.80;;;0.80;;
65206;SDS011;58477;48.072;11.970;2023-05-10T01:23:08;1.45;;;0.80;;
65206;SDS011;58477;48.072;11.970;2023-05-10T01:33:58;2.50;;;0.88;;
65206;SDS011;58477;48.072;11.970;2023-05-10T01:36:30;3.35;;;0.90;;
65206;SDS011;58477;48.072;11.970;2023-05-10T01:39:09;6.65;;;0.90;;
65206;SDS011;58477;48.072;11.970;2023-05-10T01:47:46;1.35;;;0.70;;
65206;SDS011;58477;48.072;11.970;2023-05-10T01:50:19;1.40;;;0.90;;
65206;SDS011;58477;48.072;11.970;2023-05-10T01:52:51;1.25;;;0.90;;
65206;SDS011;58477;48.072;11.970;2023-05-10T01:55:20;0.57;;;0.57;;
65206;SDS011;58477;48.072;11.970;2023-05-10T01:57:46;1.42;;;0.63;;
65206;SDS011;58477;48.072;11.970;2023-05-10T02:00:14;0.60;;;0.60;;
65206;SDS011;58477;48.072;11.970;2023-05-10T02:02:42;1.40;;;0.70;;
65206;SDS011;58477;48.072;11.970;2023-05-10T02:05:11;0.75;;;0.70;;
65206;SDS011;58477;48.072;11.970;2023-05-10T02:07:38;1.00;;;0.60;;
65206;SDS011;58477;48.072;11.970;2023-05-10T02:10:06;7.53;;;0.70;;
65206;SDS011;58477;48.072;11.970;2023-05-10T02:12:35;4.43;;;0.70;;
65206;SDS011;58477;48.072;11.970;2023-05-10T02:15:02;0.50;;;0.50;;
65206;SDS011;58477;48.072;11.970;2023-05-10T02:17:30;3.90;;;0.80;;
65206;SDS011;58477;48.072;11.970;2023-05-10T02:19:56;0.98;;;0.68;;
65206;SDS011;58477;48.072;11.970;2023-05-10T02:22:25;3.83;;;0.60;;
65206;SDS011;58477;48.072;11.970;2023-05-10T02:24:53;2.53;;;0.80;;
65206;SDS011;58477;48.072;11.970;2023-05-10T02:27:20;0.60;;;0.60;;
65206;SDS011;58477;48.072;11.970;2023-05-10T02:29:49;0.93;;;0.60;;
65206;SDS011;58477;48.072;11.970;2023-05-10T02:32:16;0.73;;;0.63;;
65206;SDS011;58477;48.072;11.970;2023-05-10T02:34:43;0.68;;;0.60;;
65206;SDS011;58477;48.072;11.970;2023-05-10T02:37:11;1.08;;;0.82;;
65206;SDS011;58477;48.072;11.970;2023-05-10T02:39:39;1.65;;;0.75;;
65206;SDS011;58477;48.072;11.970;2023-05-10T02:42:10;0.80;;;0.60;;
65206;SDS011;58477;48.072;11.970;2023-05-10T02:44:42;1.48;;;0.68;;
65206;SDS011;58477;48.072;11.970;2023-05-10T02:47:08;0.60;;;0.60;;
65206;SDS011;58477;48.072;11.970;2023-05-10T02:49:33;2.90;;;0.95;;
65206;SDS011;58477;48.072;11.970;2023-05-10T02:52:00;3.50;;;0.68;;
65206;SDS011;58477;48.072;11.970;2023-05-10T02:54:30;2.00;;;0.68;;
65206;SDS011;58477;48.072;11.970;2023-05-10T02:56:58;0.50;;;0.50;;
65206;SDS011;58477;48.072;11.970;2023-05-10T02:59:26;0.60;;;0.60;;
65206;SDS011;58477;48.072;11.970;2023-05-10T03:01:52;0.82;;;0.60;;
65206;SDS011;58477;48.072;11.970;2023-05-10T03:04:17;1.70;;;0.60;;
65206;SDS011;58477;48.072;11.970;2023-05-10T03:06:43;5.38;;;0.77;;
65206;SDS011;58477;48.072;11.970;2023-05-10T03:09:09;1.35;;;0.47;;
65206;SDS011;58477;48.072;11.970;2023-05-10T03:19:55;1.70;;;1.08;;
65206;SDS011;58477;48.072;11.970;2023-05-10T03:22:29;0.60;;;0.60;;
65206;SDS011;58477;48.072;11.970;2023-05-10T03:24:56;3.30;;;0.60;;
65206;SDS011;58477;48.072;11.970;2023-05-10T03:27:26;1.63;;;0.60;;
65206;SDS011;58477;48.072;11.970;2023-05-10T03:29:54;2.83;;;0.90;;
65206;SDS011;58477;48.072;11.970;2023-05-10T03:32:21;1.02;;;0.63;;
65206;SDS011;58477;48.072;11.970;2023-05-10T03:34:47;0.57;;;0.57;;
65206;SDS011;58477;48.072;11.970;2023-05-10T03:37:13;0.60;;;0.60;;
65206;SDS011;58477;48.072;11.970;2023-05-10T03:39:39;0.47;;;0.40;;
65206;SDS011;58477;48.072;11.970;2023-05-10T03:42:07;0.57;;;0.57;;
65206;SDS011;58477;48.072;11.970;2023-05-10T03:44:32;0.50;;;0.50;;
65206;SDS011;58477;48.072;11.970;2023-05-10T03:46:58;0.57;;;0.50;;
65206;SDS011;58477;48.072;11.970;2023-05-10T03:49:24;0.98;;;0.50;;
65206;SDS011;58477;48.072;11.970;2023-05-10T03:51:50;2.10;;;0.45;;
65206;SDS011;58477;48.072;11.970;2023-05-10T03:54:15;0.50;;;0.45;;
65206;SDS011;58477;48.072;11.970;2023-05-10T03:56:40;0.43;;;0.43;;
65206;SDS011;58477;48.072;11.970;2023-05-10T03:59:06;2.50;;;0.45;;
65206;SDS011;58477;48.072;11.970;2023-05-10T04:01:35;0.45;;;0.40;;
65206;SDS011;58477;48.072;11.970;2023-05-10T04:04:00;0.47;;;0.40;;
65206;SDS011;58477;48.072;11.970;2023-05-10T04:06:26;0.50;;;0.50;;
65206;SDS011;58477;48.072;11.970;2023-05-10T04:08:51;1.55;;;0.60;;
65206;SDS011;58477;48.072;11.970;2023-05-10T04:11:16;0.60;;;0.60;;
65206;SDS011;58477;48.072;11.970;2023-05-10T04:13:42;0.90;;;0.45;;
65206;SDS011;58477;48.072;11.970;2023-05-10T04:16:08;0.47;;;0.47;;
65206;SDS011;58477;48.072;11.970;2023-05-10T04:18:34;0.50;;;0.50;;
65206;SDS011;58477;48.072;11.970;2023-05-10T04:20:59;0.52;;;0.40;;
65206;SDS011;58477;48.072;11.970;2023-05-10T04:23:25;0.52;;;0.52;;
65206;SDS011;58477;48.072;11.970;2023-05-10T04:25:52;0.52;;;0.40;;
65206;SDS011;58477;48.072;11.970;2023-05-10T04:28:17;2.50;;;0.40;;
65206;SDS011;58477;48.072;11.970;2023-05-10T04:30:43;0.60;;;0.40;;
65206;SDS011;58477;48.072;11.970;2023-05-10T04:33:08;2.85;;;0.40;;
65206;SDS011;58477;48.072;11.970;2023-05-10T04:35:34;2.17;;;0.50;;
65206;SDS011;58477;48.072;11.970;2023-05-10T04:38:00;0.30;;;0.30;;
65206;SDS011;58477;48.072;11.970;2023-05-10T04:40:25;0.40;;;0.40;;
65206;SDS011;58477;48.072;11.970;2023-05-10T04:42:50;2.92;;;0.40;;
65206;SDS011;58477;48.072;11.970;2023-05-10T04:45:16;1.80;;;0.47;;
65206;SDS011;58477;48.072;11.970;2023-05-10T04:47:42;0.50;;;0.50;;
65206;SDS011;58477;48.072;11.970;2023-05-10T04:50:07;0.45;;;0.40;;
65206;SDS011;58477;48.072;11.970;2023-05-10T04:52:33;2.05;;;0.30;;
65206;SDS011;58477;48.072;11.970;2023-05-10T04:54:58;0.28;;;0.28;;
65206;SDS011;58477;48.072;11.970;2023-05-10T04:57:24;0.30;;;0.30;;
65206;SDS011;58477;48.072;11.970;2023-05-10T04:59:49;0.22;;;0.22;;
65206;SDS011;58477;48.072;11.970;2023-05-10T05:02:15;0.30;;;0.30;;
65206;SDS011;58477;48.072;11.970;2023-05-10T05:04:40;1.45;;;0.22;;
65206;SDS011;58477;48.072;11.970;2023-05-10T05:07:06;0.82;;;0.47;;
65206;SDS011;58477;48.072;11.970;2023-05-10T05:09:31;0.32;;;0.30;;
65206;SDS011;58477;48.072;11.970;2023-05-10T05:11:59;0.43;;;0.40;;
65206;SDS011;58477;48.072;11.970;2023-05-10T05:14:25;0.40;;;0.32;;
65206;SDS011;58477;48.072;11.970;2023-05-10T05:16:53;0.68;;;0.40;;
65206;SDS011;58477;48.072;11.970;2023-05-10T05:19:19;2.08;;;0.40;;
65206;SDS011;58477;48.072;11.970;2023-05-10T05:21:44;0.40;;;0.40;;
65206;SDS011;58477;48.072;11.970;2023-05-10T05:24:09;0.40;;;0.40;;
65206;SDS011;58477;48.072;11.970;2023-05-10T05:26:36;0.60;;;0.40;;
65206;SDS011;58477;48.072;11.970;2023-05-10T05:29:01;1.92;;;0.30;;
65206;SDS011;58477;48.072;11.970;2023-05-10T05:31:28;0.30;;;0.30;;
65206;SDS011;58477;48.072;11.970;2023-05-10T05:33:53;0.20;;;0.20;;
65206;SDS011;58477;48.072;11.970;2023-05-10T05:36:19;0.32;;;0.32;;
65206;SDS011;58477;48.072;11.970;2023-05-10T05:38:44;0.63;;;0.32;;
65206;SDS011;58477;48.072;11.970;2023-05-10T05:41:10;0.35;;;0.30;;
65206;SDS011;58477;48.072;11.970;2023-05-10T05:43:35;0.43;;;0.25;;
65206;SDS011;58477;48.072;11.970;2023-05-10T05:46:00;0.30;;;0.30;;
65206;SDS011;58477;48.072;11.970;2023-05-10T05:48:26;0.55;;;0.20;;
65206;SDS011;58477;48.072;11.970;2023-05-10T05:50:55;0.32;;;0.28;;
65206;SDS011;58477;48.072;11.970;2023-05-10T05:53:21;0.25;;;0.20;;
65206;SDS011;58477;48.072;11.970;2023-05-10T05:55:50;0.17;;;0.17;;
65206;SDS011;58477;48.072;11.970;2023-05-10T05:58:20;0.30;;;0.30;;
65206;SDS011;58477;48.072;11.970;2023-05-10T06:00:46;0.28;;;0.28;;
65206;SDS011;58477;48.072;11.970;2023-05-10T06:03:11;1.02;;;0.43;;
65206;SDS011;58477;48.072;11.970;2023-05-10T06:05:37;1.70;;;0.40;;
65206;SDS011;58477;48.072;11.970;2023-05-10T06:08:02;0.90;;;0.30;;
65206;SDS011;58477;48.072;11.970;2023-05-10T06:10:28;0.38;;;0.38;;
65206;SDS011;58477;48.072;11.970;2023-05-10T06:12:53;0.93;;;0.40;;
65206;SDS011;58477;48.072;11.970;2023-05-10T06:15:19;0.45;;;0.45;;
65206;SDS011;58477;48.072;11.970;2023-05-10T06:17:44;0.40;;;0.40;;
65206;SDS011;58477;48.072;11.970;2023-05-10T06:20:10;0.47;;;0.47;;
65206;SDS011;58477;48.072;11.970;2023-05-10T06:22:36;1.27;;;0.50;;
65206;SDS011;58477;48.072;11.970;2023-05-10T06:25:02;0.60;;;0.60;;
65206;SDS011;58477;48.072;11.970;2023-05-10T06:27:27;0.75;;;0.70;;
65206;SDS011;58477;48.072;11.970;2023-05-10T06:29:53;0.85;;;0.60;;
65206;SDS011;58477;48.072;11.970;2023-05-10T06:32:18;4.30;;;0.68;;
65206;SDS011;58477;48.072;11.970;2023-05-10T06:34:43;1.85;;;0.65;;
65206;SDS011;58477;48.072;11.970;2023-05-10T06:37:09;4.97;;;0.70;;
65206;SDS011;58477;48.072;11.970;2023-05-10T06:39:35;1.80;;;0.70;;
65206;SDS011;58477;48.072;11.970;2023-05-10T06:42:01;1.42;;;0.90;;
65206;SDS011;58477;48.072;11.970;2023-05-10T06:44:31;2.88;;;0.50;;
65206;SDS011;58477;48.072;11.970;2023-05-10T06:46:56;0.77;;;0.70;;
65206;SDS011;58477;48.072;11.970;2023-05-10T06:49:22;0.52;;;0.52;;
65206;SDS011;58477;48.072;11.970;2023-05-10T06:51:47;1.13;;;0.88;;
65206;SDS011;58477;48.072;11.970;2023-05-10T06:54:13;2.55;;;1.02;;
65206;SDS011;58477;48.072;11.970;2023-05-10T06:56:39;1.90;;;1.00;;
65206;SDS011;58477;48.072;11.970;2023-05-10T06:59:04;2.40;;;1.08;;
65206;SDS011;58477;48.072;11.970;2023-05-10T07:01:30;4.20;;;1.15;;
65206;SDS011;58477;48.072;11.970;2023-05-10T07:03:55;4.68;;;1.20;;
65206;SDS011;58477;48.072;11.970;2023-05-10T07:06:20;2.47;;;0.80;;
65206;SDS011;58477;48.072;11.970;2023-05-10T07:08:46;1.70;;;1.05;;
65206;SDS011;58477;48.072;11.970;2023-05-10T07:11:11;3.50;;;1.58;;
65206;SDS011;58477;48.072;11.970;2023-05-10T07:13:37;2.38;;;1.42;;
65206;SDS011;58477;48.072;11.970;2023-05-10T07:16:04;1.73;;;1.27;;
65206;SDS011;58477;48.072;11.970;2023-05-10T07:18:31;1.67;;;1.48;;
65206;SDS011;58477;48.072;11.970;2023-05-10T07:20:57;1.63;;;1.08;;
65206;SDS011;58477;48.072;11.970;2023-05-10T07:23:22;3.30;;;1.23;;
65206;SDS011;58477;48.072;11.970;2023-05-10T07:25:49;4.18;;;0.90;;
65206;SDS011;58477;48.072;11.970;2023-05-10T07:28:17;1.35;;;1.20;;
65206;SDS011;58477;48.072;11.970;2023-05-10T07:30:43;3.13;;;1.08;;
65206;SDS011;58477;48.072;11.970;2023-05-10T07:33:09;1.20;;;1.10;;
65206;SDS011;58477;48.072;11.970;2023-05-10T07:35:36;1.05;;;0.82;;
65206;SDS011;58477;48.072;11.970;2023-05-10T07:38:02;1.30;;;1.20;;
65206;SDS011;58477;48.072;11.970;2023-05-10T07:40:28;1.75;;;1.10;;
65206;SDS011;58477;48.072;11.970;2023-05-10T07:42:54;1.60;;;0.93;;
65206;SDS011;58477;48.072;11.970;2023-05-10T07:45:19;4.53;;;1.45;;
65206;SDS011;58477;48.072;11.970;2023-05-10T07:47:45;0.98;;;0.98;;
65206;SDS011;58477;48.072;11.970;2023-05-10T07:50:10;1.15;;;1.05;;
65206;SDS011;58477;48.072;11.970;2023-05-10T07:52:36;1.25;;;1.05;;
65206;SDS011;58477;48.072;11.970;2023-05-10T07:55:01;1.10;;;1.00;;
65206;SDS011;58477;48.072;11.970;2023-05-10T07:57:27;2.03;;;0.77;;
65206;SDS011;58477;48.072;11.970;2023-05-10T07:59:52;2.40;;;0.80;;
65206;SDS011;58477;48.072;11.970;2023-05-10T08:02:18;0.80;;;0.70;;
65206;SDS011;58477;48.072;11.970;2023-05-10T08:04:43;1.25;;;0.80;;
65206;SDS011;58477;48.072;11.970;2023-05-10T08:07:08;0.82;;;0.80;;
65206;SDS011;58477;48.072;11.970;2023-05-10T08:09:34;4.22;;;1.20;;
65206;SDS011;58477;48.072;11.970;2023-05-10T08:11:59;4.35;;;1.10;;
65206;SDS011;58477;48.072;11.970;2023-05-10T08:14:25;11.10;;;1.38;;
65206;SDS011;58477;48.072;11.970;2023-05-10T08:16:52;1.48;;;1.13;;
65206;SDS011;58477;48.072;11.970;2023-05-10T08:19:17;3.05;;;1.10;;
65206;SDS011;58477;48.072;11.970;2023-05-10T08:21:45;0.90;;;0.90;;
65206;SDS011;58477;48.072;11.970;2023-05-10T08:24:10;2.55;;;1.20;;
65206;SDS011;58477;48.072;11.970;2023-05-10T08:26:36;0.63;;;0.63;;
65206;SDS011;58477;48.072;11.970;2023-05-10T08:29:01;0.85;;;0.85;;
65206;SDS011;58477;48.072;11.970;2023-05-10T08:31:27;1.17;;;0.65;;
65206;SDS011;58477;48.072;11.970;2023-05-10T08:33:52;1.33;;;0.80;;
65206;SDS011;58477;48.072;11.970;2023-05-10T08:36:18;0.90;;;0.57;;
65206;SDS011;58477;48.072;11.970;2023-05-10T08:38:47;0.90;;;0.80;;
65206;SDS011;58477;48.072;11.970;2023-05-10T08:41:14;1.65;;;1.33;;
65206;SDS011;58477;48.072;11.970;2023-05-10T08:43:40;2.30;;;1.20;;
65206;SDS011;58477;48.072;11.970;2023-05-10T08:46:11;0.73;;;0.73;;
65206;SDS011;58477;48.072;11.970;2023-05-10T08:48:43;0.93;;;0.88;;
65206;SDS011;58477;48.072;11.970;2023-05-10T08:51:09;1.40;;;0.80;;
65206;SDS011;58477;48.072;11.970;2023-05-10T08:53:42;0.93;;;0.85;;
65206;SDS011;58477;48.072;11.970;2023-05-10T08:56:09;1.02;;;0.90;;
65206;SDS011;58477;48.072;11.970;2023-05-10T08:58:34;1.15;;;0.80;;
65206;SDS011;58477;48.072;11.970;2023-05-10T09:01:01;0.80;;;0.80;;
65206;SDS011;58477;48.072;11.970;2023-05-10T09:03:27;1.20;;;0.90;;
65206;SDS011;58477;48.072;11.970;2023-05-10T09:05:53;2.92;;;0.93;;
65206;SDS011;58477;48.072;11.970;2023-05-10T09:08:20;0.70;;;0.70;;
65206;SDS011;58477;48.072;11.970;2023-05-10T09:10:50;1.30;;;0.60;;
65206;SDS011;58477;48.072;11.970;2023-05-10T09:13:16;1.67;;;0.95;;
65206;SDS011;58477;48.072;11.970;2023-05-10T09:15:43;3.30;;;0.57;;
65206;SDS011;58477;48.072;11.970;2023-05-10T09:18:09;3.08;;;0.80;;
65206;SDS011;58477;48.072;11.970;2023-05-10T09:20:34;0.70;;;0.70;;
65206;SDS011;58477;48.072;11.970;2023-05-10T09:23:00;0.55;;;0.55;;
65206;SDS011;58477;48.072;11.970;2023-05-10T09:25:25;2.25;;;0.68;;
65206;SDS011;58477;48.072;11.970;2023-05-10T09:27:51;0.77;;;0.70;;
65206;SDS011;58477;48.072;11.970;2023-05-10T09:30:23;3.03;;;0.70;;
65206;SDS011;58477;48.072;11.970;2023-05-10T09:32:49;0.82;;;0.60;;
65206;SDS011;58477;48.072;11.970;2023-05-10T09:35:22;0.50;;;0.50;;
65206;SDS011;58477;48.072;11.970;2023-05-10T09:37:50;1.33;;;0.65;;
65206;SDS011;58477;48.072;11.970;2023-05-10T09:40:22;1.75;;;0.68;;
65206;SDS011;58477;48.072;11.970;2023-05-10T09:42:59;3.75;;;0.80;;
65206;SDS011;58477;48.072;11.970;2023-05-10T09:45:27;6.45;;;1.20;;
65206;SDS011;58477;48.072;11.970;2023-05-10T09:47:56;0.95;;;0.60;;
65206;SDS011;58477;48.072;11.970;2023-05-10T09:50:22;9.43;;;0.47;;
65206;SDS011;58477;48.072;11.970;2023-05-10T09:53:01;0.55;;;0.40;;
65206;SDS011;58477;48.072;11.970;2023-05-10T09:55:41;0.52;;;0.40;;
65206;SDS011;58477;48.072;11.970;2023-05-10T09:58:14;0.63;;;0.45;;
65206;SDS011;58477;48.072;11.970;2023-05-10T10:00:40;4.50;;;0.60;;
65206;SDS011;58477;48.072;11.970;2023-05-10T10:03:14;1.75;;;0.50;;
65206;SDS011;58477;48.072;11.970;2023-05-10T10:05:41;1.67;;;0.80;;
65206;SDS011;58477;48.072;11.970;2023-05-10T10:08:08;1.02;;;0.60;;
65206;SDS011;58477;48.072;11.970;2023-05-10T10:10:34;2.55;;;0.65;;
65206;SDS011;58477;48.072;11.970;2023-05-10T10:13:00;1.70;;;0.60;;
65206;SDS011;58477;48.072;11.970;2023-05-10T10:15:26;0.60;;;0.50;;
65206;SDS011;58477;48.072;11.970;2023-05-10T10:17:52;0.70;;;0.70;;
65206;SDS011;58477;48.072;11.970;2023-05-10T10:20:19;0.50;;;0.50;;
65206;SDS011;58477;48.072;11.970;2023-05-10T10:22:46;2.55;;;0.82;;
65206;SDS011;58477;48.072;11.970;2023-05-10T10:25:12;0.50;;;0.50;;
65206;SDS011;58477;48.072;11.970;2023-05-10T10:33:36;3.25;;;0.95;;
65206;SDS011;58477;48.072;11.970;2023-05-10T10:36:08;1.02;;;0.43;;
65206;SDS011;58477;48.072;11.970;2023-05-10T10:39:08;0.80;;;0.50;;
65206;SDS011;58477;48.072;11.970;2023-05-10T10:46:58;1.17;;;0.73;;
65206;SDS011;58477;48.072;11.970;2023-05-10T10:49:24;0.65;;;0.57;;
65206;SDS011;58477;48.072;11.970;2023-05-10T10:54:41;1.67;;;1.00;;
65206;SDS011;58477;48.072;11.970;2023-05-10T10:57:14;1.50;;;0.70;;
65206;SDS011;58477;48.072;11.970;2023-05-10T10:59:43;0.95;;;0.80;;
65206;SDS011;58477;48.072;11.970;2023-05-10T11:02:09;1.60;;;0.90;;
65206;SDS011;58477;48.072;11.970;2023-05-10T11:04:41;0.68;;;0.60;;
65206;SDS011;58477;48.072;11.970;2023-05-10T11:07:17;3.55;;;0.90;;
65206;SDS011;58477;48.072;11.970;2023-05-10T11:09:44;3.63;;;0.90;;
65206;SDS011;58477;48.072;11.970;2023-05-10T11:12:11;0.80;;;0.60;;
65206;SDS011;58477;48.072;11.970;2023-05-10T11:14:37;0.57;;;0.47;;
65206;SDS011;58477;48.072;11.970;2023-05-10T11:17:21;2.65;;;0.63;;
65206;SDS011;58477;48.072;11.970;2023-05-10T11:20:06;0.40;;;0.40;;
65206;SDS011;58477;48.072;11.970;2023-05-10T11:22:50;0.65;;;0.65;;
65206;SDS011;58477;48.072;11.970;2023-05-10T11:25:16;1.75;;;0.93;;
65206;SDS011;58477;48.072;11.970;2023-05-10T11:27:42;1.50;;;0.80;;
65206;SDS011;58477;48.072;11.970;2023-05-10T11:30:09;5.85;;;1.20;;
65206;SDS011;58477;48.072;11.970;2023-05-10T11:32:37;1.45;;;1.00;;
65206;SDS011;58477;48.072;11.970;2023-05-10T11:35:07;1.35;;;1.10;;
65206;SDS011;58477;48.072;11.970;2023-05-10T11:37:33;1.17;;;1.02;;
65206;SDS011;58477;48.072;11.970;2023-05-10T11:39:59;0.85;;;0.80;;
65206;SDS011;58477;48.072;11.970;2023-05-10T11:42:25;1.15;;;1.00;;
65206;SDS011;58477;48.072;11.970;2023-05-10T11:44:52;1.30;;;1.20;;
65206;SDS011;58477;48.072;11.970;2023-05-10T11:47:17;1.42;;;1.10;;
65206;SDS011;58477;48.072;11.970;2023-05-10T11:49:43;3.40;;;1.27;;
65206;SDS011;58477;48.072;11.970;2023-05-10T11:52:09;2.05;;;1.10;;
65206;SDS011;58477;48.072;11.970;2023-05-10T11:54:36;1.70;;;1.20;;
65206;SDS011;58477;48.072;11.970;2023-05-10T11:57:02;1.48;;;1.38;;
65206;SDS011;58477;48.072;11.970;2023-05-10T11:59:28;2.17;;;1.98;;
65206;SDS011;58477;48.072;11.970;2023-05-10T12:01:54;2.30;;;2.10;;
65206;SDS011;58477;48.072;11.970;2023-05-10T12:04:19;4.20;;;1.98;;
65206;SDS011;58477;48.072;11.970;2023-05-10T12:06:45;2.00;;;1.90;;
65206;SDS011;58477;48.072;11.970;2023-05-10T12:09:11;2.40;;;1.65;;
65206;SDS011;58477;48.072;11.970;2023-05-10T12:11:38;2.03;;;1.80;;
65206;SDS011;58477;48.072;11.970;2023-05-10T12:14:08;3.25;;;1.80;;
65206;SDS011;58477;48.072;11.970;2023-05-10T12:16:34;1.70;;;1.60;;
65206;SDS011;58477;48.072;11.970;2023-05-10T12:19:00;1.17;;;1.13;;
65206;SDS011;58477;48.072;11.970;2023-05-10T12:21:27;4.38;;;1.45;;
65206;SDS011;58477;48.072;11.970;2023-05-10T12:23:54;2.20;;;2.00;;
65206;SDS011;58477;48.072;11.970;2023-05-10T12:26:24;1.80;;;1.70;;
65206;SDS011;58477;48.072;11.970;2023-05-10T12:28:52;2.10;;;1.35;;
65206;SDS011;58477;48.072;11.970;2023-05-10T12:31:48;4.90;;;1.23;;
65206;SDS011;58477;48.072;11.970;2023-05-10T12:34:31;0.57;;;0.55;;
65206;SDS011;58477;48.072;11.970;2023-05-10T12:36:58;0.70;;;0.60;;
65206;SDS011;58477;48.072;11.970;2023-05-10T12:39:25;0.90;;;0.60;;
65206;SDS011;58477;48.072;11.970;2023-05-10T12:41:51;3.03;;;0.73;;
65206;SDS011;58477;48.072;11.970;2023-05-10T12:44:17;3.05;;;0.60;;
65206;SDS011;58477;48.072;11.970;2023-05-10T12:46:42;4.93;;;0.70;;
65206;SDS011;58477;48.072;11.970;2023-05-10T12:49:08;6.32;;;0.90;;
65206;SDS011;58477;48.072;11.970;2023-05-10T12:51:33;8.80;;;1.13;;
65206;SDS011;58477;48.072;11.970;2023-05-10T12:53:59;5.95;;;1.10;;
65206;SDS011;58477;48.072;11.970;2023-05-10T12:56:24;9.45;;;0.90;;
65206;SDS011;58477;48.072;11.970;2023-05-10T12:58:50;5.50;;;0.80;;
65206;SDS011;58477;48.072;11.970;2023-05-10T13:01:16;3.42;;;0.80;;
65206;SDS011;58477;48.072;11.970;2023-05-10T13:03:41;3.28;;;0.85;;
65206;SDS011;58477;48.072;11.970;2023-05-10T13:06:08;3.15;;;0.90;;
65206;SDS011;58477;48.072;11.970;2023-05-10T13:08:33;0.63;;;0.63;;
65206;SDS011;58477;48.072;11.970;2023-05-10T13:10:59;0.70;;;0.70;;
65206;SDS011;58477;48.072;11.970;2023-05-10T13:13:26;2.13;;;1.00;;
65206;SDS011;58477;48.072;11.970;2023-05-10T13:15:51;5.07;;;0.80;;
65206;SDS011;58477;48.072;11.970;2023-05-10T13:18:17;2.85;;;0.98;;
65206;SDS011;58477;48.072;11.970;2023-05-10T13:20:42;1.20;;;1.00;;
65206;SDS011;58477;48.072;11.970;2023-05-10T13:23:09;1.50;;;0.93;;
65206;SDS011;58477;48.072;11.970;2023-05-10T13:25:35;2.83;;;1.52;;
65206;SDS011;58477;48.072;11.970;2023-05-10T13:28:00;1.88;;;1.10;;
65206;SDS011;58477;48.072;11.970;2023-05-10T13:30:26;1.73;;;0.82;;
65206;SDS011;58477;48.072;11.970;2023-05-10T13:32:51;2.00;;;1.00;;
65206;SDS011;58477;48.072;11.970;2023-05-10T13:35:17;1.85;;;1.08;;
65206;SDS011;58477;48.072;11.970;2023-05-10T13:37:42;2.30;;;1.13;;
65206;SDS011;58477;48.072;11.970;2023-05-10T13:40:08;2.33;;;1.02;;
65206;SDS011;58477;48.072;11.970;2023-05-10T13:42:33;1.15;;;0.90;;
65206;SDS011;58477;48.072;11.970;2023-05-10T13:44:59;1.10;;;0.80;;
65206;SDS011;58477;48.072;11.970;2023-05-10T13:47:26;3.17;;;1.13;;
65206;SDS011;58477;48.072;11.970;2023-05-10T13:49:52;1.48;;;1.00;;
65206;SDS011;58477;48.072;11.970;2023-05-10T13:52:18;1.85;;;0.95;;
65206;SDS011;58477;48.072;11.970;2023-05-10T13:54:44;0.80;;;0.60;;
65206;SDS011;58477;48.072;11.970;2023-05-10T13:57:09;1.38;;;1.00;;
65206;SDS011;58477;48.072;11.970;2023-05-10T13:59:36;1.35;;;0.85;;
65206;SDS011;58477;48.072;11.970;2023-05-10T14:02:02;1.48;;;0.88;;
65206;SDS011;58477;48.072;11.970;2023-05-10T14:04:28;2.63;;;1.30;;
65206;SDS011;58477;48.072;11.970;2023-05-10T14:06:54;1.67;;;0.88;;
65206;SDS011;58477;48.072;11.970;2023-05-10T14:09:19;2.40;;;0.90;;
65206;SDS011;58477;48.072;11.970;2023-05-10T14:11:45;4.82;;;1.08;;
65206;SDS011;58477;48.072;11.970;2023-05-10T14:14:10;0.77;;;0.77;;
65206;SDS011;58477;48.072;11.970;2023-05-10T14:16:36;0.93;;;0.93;;
65206;SDS011;58477;48.072;11.970;2023-05-10T14:19:02;1.13;;;0.90;;
65206;SDS011;58477;48.072;11.970;2023-05-10T14:21:27;1.10;;;0.90;;
65206;SDS011;58477;48.072;11.970;2023-05-10T14:23:56;0.95;;;0.95;;
65206;SDS011;58477;48.072;11.970;2023-05-10T14:26:22;1.40;;;1.00;;
65206;SDS011;58477;48.072;11.970;2023-05-10T14:28:47;1.10;;;1.00;;
65206;SDS011;58477;48.072;11.970;2023-05-10T14:31:13;3.53;;;1.00;;
65206;SDS011;58477;48.072;11.970;2023-05-10T14:33:39;4.57;;;1.00;;
65206;SDS011;58477;48.072;11.970;2023-05-10T14:36:05;3.95;;;1.30;;
65206;SDS011;58477;48.072;11.970;2023-05-10T14:38:31;1.10;;;0.73;;
65206;SDS011;58477;48.072;11.970;2023-05-10T14:40:57;1.77;;;0.95;;
65206;SDS011;58477;48.072;11.970;2023-05-10T14:43:22;1.20;;;0.82;;
65206;SDS011;58477;48.072;11.970;2023-05-10T14:45:48;0.77;;;0.75;;
65206;SDS011;58477;48.072;11.970;2023-05-10T14:48:13;1.17;;;1.00;;
65206;SDS011;58477;48.072;11.970;2023-05-10T14:50:42;1.05;;;0.75;;
65206;SDS011;58477;48.072;11.970;2023-05-10T14:53:08;1.25;;;0.80;;
65206;SDS011;58477;48.072;11.970;2023-05-10T14:55:33;3.60;;;0.70;;
65206;SDS011;58477;48.072;11.970;2023-05-10T14:58:00;0.73;;;0.70;;
65206;SDS011;58477;48.072;11.970;2023-05-10T15:00:27;0.95;;;0.90;;
65206;SDS011;58477;48.072;11.970;2023-05-10T15:02:54;2.42;;;0.80;;
65206;SDS011;58477;48.072;11.970;2023-05-10T15:05:19;0.65;;;0.65;;
65206;SDS011;58477;48.072;11.970;2023-05-10T15:07:45;0.50;;;0.50;;